Time;durP1;ratioP1;P1;durP2;ratioP2;P2;SDS_P1;SDS_P2;PMS_P1;PMS_P2;Temp;Humidity;BMP_temperature;BMP_pressure;BME280_temperature;BME280_humidity;BME280_pressure;Samples;Min_cycle;Max_cycle;Signal;HPM_P1;HPM_P2
2022/05/08 04:01:18;;;;;;;5.20;4.00;;;5.60;96.30;;;;;;5555261;23;21012;-78
2022/05/08 04:03:43;;;;;;;5.13;3.87;;;5.60;96.30;;;;;;4954220;29;20455;-79
2022/05/08 04:06:09;;;;;;;6.10;4.07;;;5.70;96.30;;;;;;4954087;29;20568;-78
2022/05/08 04:08:34;;;;;;;4.97;3.90;;;5.70;96.30;;;;;;4936553;29;20179;-78
2022/05/08 04:11:01;;;;;;;5.60;3.70;;;5.80;96.30;;;;;;4953582;28;20650;-79
2022/05/08 04:13:26;;;;;;;5.50;3.30;;;5.90;96.30;;;;;;4954316;29;20234;-78
2022/05/08 04:18:35;;;;;;;7.87;4.40;;;5.90;96.30;;;;;;4954220;29;20178;-78
2022/05/08 07:53:58;;;;;;;7.03;5.97;;;23.10;87.90;;;;;;5336212;23;20770;31
2022/05/08 09:06:10;;;;;;;13.67;9.13;;;19.70;96.30;;;;;;5372956;23;20498;-75
2022/05/08 09:08:36;;;;;;;11.03;9.80;;;19.90;96.30;;;;;;4937994;29;20416;-75
2022/05/08 09:11:02;;;;;;;13.20;9.00;;;20.50;96.30;;;;;;4921217;29;20216;-75
2022/05/08 09:13:29;;;;;;;10.33;8.20;;;21.00;96.30;;;;;;4938730;29;20529;-75
2022/05/08 09:16:02;;;;;;;9.07;8.13;;;21.70;96.30;;;;;;4956604;28;20438;-75
2022/05/08 09:18:28;;;;;;;9.33;8.07;;;21.60;96.30;;;;;;4951920;29;20419;-75
2022/05/08 09:20:57;;;;;;;9.77;8.50;;;22.00;96.30;;;;;;4942459;29;20415;-75
2022/05/08 09:23:23;;;;;;;14.90;8.67;;;22.00;96.30;;;;;;4926864;29;20184;-76
2022/05/08 09:25:51;;;;;;;11.70;9.40;;;21.90;96.30;;;;;;4922639;28;20462;-74
2022/05/08 09:28:20;;;;;;;9.37;8.37;;;21.20;96.30;;;;;;4935717;29;20423;-73
2022/05/08 09:31:03;;;;;;;8.50;7.80;;;21.50;96.30;;;;;;4932423;29;20515;-74
2022/05/08 09:33:41;;;;;;;9.47;8.47;;;21.20;96.30;;;;;;4919356;29;20419;-74
2022/05/08 09:36:17;;;;;;;8.80;8.00;;;21.30;96.30;;;;;;4920131;29;20440;-74
2022/05/08 09:38:43;;;;;;;10.70;7.57;;;22.00;96.30;;;;;;4918532;29;20454;-75
2022/05/08 09:41:10;;;;;;;9.27;8.30;;;21.90;95.80;;;;;;4919340;29;20404;-75
2022/05/08 09:43:35;;;;;;;9.93;8.67;;;21.20;96.30;;;;;;4919610;29;20574;-76
2022/05/08 10:58:52;;;;;;;8.50;7.27;;;20.40;96.30;;;;;;5057215;23;20492;-74
2022/05/08 11:01:17;;;;;;;8.37;7.47;;;20.60;96.30;;;;;;4971192;28;20493;-74
2022/05/08 11:03:43;;;;;;;12.30;7.37;;;20.00;96.30;;;;;;4965979;28;20490;-74
2022/05/08 11:50:57;;;;;;;5.97;5.13;;;17.90;96.30;;;;;;4949031;29;21027;-73
2022/05/08 11:53:25;;;;;;;6.93;5.03;;;18.30;96.30;;;;;;4948718;29;20422;-76
2022/05/08 11:55:51;;;;;;;6.80;5.10;;;19.20;96.30;;;;;;4948381;29;20435;-74
2022/05/08 11:58:32;;;;;;;7.93;5.47;;;19.20;96.30;;;;;;4940255;29;20806;-75
2022/05/08 12:01:01;;;;;;;7.13;4.70;;;19.70;96.30;;;;;;4940243;29;20187;-74
2022/05/08 12:03:30;;;;;;;5.90;5.30;;;20.10;96.30;;;;;;4941301;29;20467;-74
2022/05/08 12:06:13;;;;;;;6.33;5.10;;;19.40;96.30;;;;;;4940224;29;20447;-74
2022/05/08 12:08:39;;;;;;;6.17;5.43;;;19.00;96.30;;;;;;4926448;29;20408;-74
2022/05/08 12:11:05;;;;;;;6.13;4.83;;;19.00;96.30;;;;;;4936852;29;20517;-74
2022/05/08 12:13:34;;;;;;;5.60;5.10;;;19.10;96.30;;;;;;4936224;29;20183;-76
2022/05/08 12:16:16;;;;;;;5.80;5.30;;;19.80;96.30;;;;;;4939793;29;20187;-74
2022/05/08 12:19:13;;;;;;;6.83;5.00;;;19.70;96.30;;;;;;4938229;29;20415;-75
2022/05/08 12:21:39;;;;;;;7.60;5.00;;;20.10;96.30;;;;;;4938743;29;20410;-75
2022/05/08 12:24:18;;;;;;;6.03;4.87;;;20.40;96.30;;;;;;4937548;29;20865;-74
2022/05/08 12:26:44;;;;;;;7.80;5.40;;;20.80;96.30;;;;;;4937522;29;20431;-75
2022/05/08 12:29:21;;;;;;;4.77;4.33;;;20.00;96.30;;;;;;4934723;29;20955;-75
2022/05/08 12:31:50;;;;;;;13.30;4.60;;;19.40;96.30;;;;;;4935731;29;20416;-75
2022/05/08 12:34:16;;;;;;;8.60;4.03;;;18.70;96.30;;;;;;4941039;29;20428;-75
2022/05/08 12:36:42;;;;;;;4.63;3.70;;;18.90;96.30;;;;;;4935264;29;20882;-76
2022/05/08 12:39:08;;;;;;;9.67;4.90;;;19.70;96.30;;;;;;4935039;29;20519;-75
2022/05/08 12:41:34;;;;;;;5.67;5.10;;;19.90;96.30;;;;;;4935582;29;20219;-75
2022/05/08 12:44:01;;;;;;;10.37;5.20;;;19.60;96.30;;;;;;4935007;29;21175;-74
2022/05/08 12:46:27;;;;;;;7.63;5.40;;;19.50;96.30;;;;;;4935757;29;20192;-74
2022/05/08 12:48:53;;;;;;;8.83;4.90;;;19.90;96.30;;;;;;4935141;29;20431;-74
2022/05/08 12:51:18;;;;;;;5.57;4.83;;;19.60;96.30;;;;;;4935457;29;20467;-75
2022/05/08 12:53:43;;;;;;;5.30;4.73;;;19.30;96.30;;;;;;4935108;29;20227;-74
2022/05/08 13:41:00;;;;;;;6.40;4.77;;;18.40;96.30;;;;;;4973723;28;20485;-73
2022/05/08 13:43:27;;;;;;;5.43;4.33;;;18.00;96.30;;;;;;4975615;28;20917;-73
2022/05/08 14:05:05;;;;;;;6.27;4.33;;;17.90;96.30;;;;;;4975917;28;20953;-75
2022/05/08 14:07:30;;;;;;;5.77;4.43;;;18.10;96.30;;;;;;4976081;28;20440;-74
2022/05/08 14:09:56;;;;;;;6.53;3.87;;;18.30;96.30;;;;;;4976121;28;20465;-73
2022/05/08 14:12:21;;;;;;;7.50;3.50;;;18.70;96.30;;;;;;4976387;28;20184;-74
2022/05/08 14:14:47;;;;;;;5.47;4.00;;;18.90;96.30;;;;;;4976093;28;20171;-75
2022/05/08 14:17:12;;;;;;;5.37;3.70;;;19.40;96.30;;;;;;4975917;28;20242;-74
2022/05/08 14:19:38;;;;;;;5.57;4.00;;;19.80;96.30;;;;;;4975527;28;20241;-75
2022/05/08 14:22:04;;;;;;;5.63;3.60;;;20.00;96.30;;;;;;4971832;28;20188;-74
2022/05/08 14:24:29;;;;;;;8.07;3.73;;;19.90;95.00;;;;;;4963678;28;20203;-74
2022/05/08 14:26:54;;;;;;;9.10;4.60;;;19.70;96.30;;;;;;4956276;29;20287;-73
2022/05/08 14:29:20;;;;;;;4.17;3.40;;;19.20;96.30;;;;;;4961628;28;20276;-71
2022/05/08 14:37:13;;;;;;;5.90;3.60;;;19.50;96.30;;;;;;4959777;28;20879;-74
2022/05/08 14:39:39;;;;;;;4.70;3.70;;;19.90;96.30;;;;;;4974127;28;20417;-74
2022/05/08 14:42:05;;;;;;;7.00;4.17;;;20.10;96.30;;;;;;4956554;28;20633;-76
2022/05/08 14:44:30;;;;;;;4.13;3.73;;;20.00;96.30;;;;;;4973632;28;20197;-76
2022/05/08 14:46:56;;;;;;;4.30;3.50;;;20.00;96.30;;;;;;4970977;28;20661;-74
2022/05/08 14:49:21;;;;;;;8.70;3.90;;;19.70;96.30;;;;;;4955976;29;20551;-74
2022/05/08 14:51:47;;;;;;;6.50;4.00;;;19.70;96.30;;;;;;4956704;29;20195;-74
2022/05/08 14:54:13;;;;;;;3.90;3.50;;;19.80;96.30;;;;;;4956317;28;20174;-74
2022/05/08 14:56:41;;;;;;;4.73;3.43;;;19.50;96.30;;;;;;4956014;29;20422;-75
2022/05/08 14:59:07;;;;;;;5.23;3.97;;;18.80;96.30;;;;;;4956712;29;20171;-70
2022/05/08 15:01:32;;;;;;;9.47;4.07;;;18.40;96.30;;;;;;5040403;23;20509;-70
2022/05/08 15:03:58;;;;;;;10.30;3.70;;;18.10;96.30;;;;;;4956405;28;20178;-71
2022/05/08 15:06:24;;;;;;;5.90;4.63;;;17.70;96.30;;;;;;4973831;28;20190;-71
2022/05/08 15:08:50;;;;;;;5.23;3.50;;;17.40;96.30;;;;;;4972715;28;20229;-71
2022/05/08 15:11:18;;;;;;;6.20;3.87;;;17.30;96.30;;;;;;4973913;28;20210;-71
2022/05/08 15:13:43;;;;;;;5.00;4.10;;;17.20;96.30;;;;;;4973145;28;20417;-71
2022/05/08 15:16:09;;;;;;;7.17;4.33;;;17.10;96.30;;;;;;4973212;28;20410;-71
2022/05/08 15:18:49;;;;;;;7.50;4.90;;;17.00;96.30;;;;;;4972704;28;20174;-71
2022/05/08 15:21:18;;;;;;;4.33;3.50;;;16.80;96.30;;;;;;4973249;28;20732;-71
2022/05/08 15:23:44;;;;;;;7.20;5.33;;;16.90;96.30;;;;;;4955588;28;20422;-71
2022/05/08 15:26:10;;;;;;;19.57;3.83;;;16.90;96.30;;;;;;4973081;28;20786;-71
2022/05/08 15:28:36;;;;;;;5.50;4.50;;;17.00;96.30;;;;;;4972438;28;20198;-71
2022/05/08 15:31:02;;;;;;;6.20;4.20;;;17.20;96.30;;;;;;4972638;28;20993;-71
2022/05/08 15:33:28;;;;;;;10.03;4.23;;;17.30;96.30;;;;;;4973141;28;20178;-71
2022/05/08 15:35:53;;;;;;;4.67;3.80;;;17.40;96.30;;;;;;4955731;28;20505;-71
2022/05/08 15:38:19;;;;;;;4.70;4.30;;;17.80;96.30;;;;;;4954875;28;20174;-71
2022/05/08 15:40:45;;;;;;;3.77;3.23;;;18.00;96.30;;;;;;4972953;28;20198;-71
2022/05/08 15:43:10;;;;;;;13.40;5.33;;;18.20;96.30;;;;;;4971193;28;20174;-71
2022/05/08 15:45:36;;;;;;;8.00;4.40;;;18.00;96.30;;;;;;4971402;28;20638;-71
2022/05/08 15:48:02;;;;;;;5.27;4.10;;;17.60;96.30;;;;;;4966000;28;20194;-71
2022/05/08 15:50:27;;;;;;;6.50;3.70;;;17.30;96.30;;;;;;4970693;28;20210;-71
2022/05/08 15:52:54;;;;;;;8.87;4.40;;;17.10;96.30;;;;;;4946887;28;20182;-71
2022/05/08 15:55:23;;;;;;;7.80;4.50;;;16.90;96.30;;;;;;4964174;28;20177;-71
2022/05/08 15:57:50;;;;;;;5.00;4.10;;;16.80;96.30;;;;;;4965008;28;20406;-72
2022/05/08 16:00:17;;;;;;;4.33;3.87;;;16.80;96.30;;;;;;4966739;28;20894;-71
2022/05/08 16:02:42;;;;;;;4.80;4.00;;;16.80;96.30;;;;;;4961413;28;20794;-71
2022/05/08 16:05:09;;;;;;;6.23;4.20;;;16.80;96.30;;;;;;4962230;28;20436;-71
2022/05/08 16:07:35;;;;;;;8.10;4.63;;;16.90;96.30;;;;;;4965520;28;20220;-71
2022/05/08 16:10:00;;;;;;;5.90;3.97;;;16.80;96.30;;;;;;4942348;28;20470;-71
2022/05/08 16:12:26;;;;;;;4.43;3.53;;;17.00;96.30;;;;;;4961148;28;20422;-71
2022/05/08 16:23:12;;;;;;;5.93;3.57;;;18.00;96.30;;;;;;4957112;28;20925;-71
2022/05/08 16:25:42;;;;;;;4.53;3.57;;;18.00;96.30;;;;;;4968976;28;20440;-71
2022/05/08 16:28:08;;;;;;;4.53;3.90;;;18.10;96.30;;;;;;4960251;28;20862;-71
2022/05/08 16:30:34;;;;;;;4.07;3.67;;;18.40;96.30;;;;;;4963605;28;20472;-70
2022/05/08 16:33:00;;;;;;;4.27;3.60;;;18.60;96.30;;;;;;4962382;28;20409;-71
2022/05/08 16:35:25;;;;;;;5.13;3.30;;;18.60;96.30;;;;;;4965302;28;20174;-71
2022/05/08 16:37:54;;;;;;;4.63;3.13;;;18.40;96.30;;;;;;4962353;28;20762;-71
2022/05/08 16:40:23;;;;;;;7.50;3.43;;;18.10;96.30;;;;;;4953969;28;20209;-70
2022/05/08 16:42:49;;;;;;;6.03;2.67;;;17.90;96.30;;;;;;4961493;28;20421;-71
2022/05/08 16:45:18;;;;;;;4.37;3.00;;;17.90;96.30;;;;;;4958110;28;20419;-71
2022/05/08 16:47:44;;;;;;;6.43;2.50;;;17.80;96.30;;;;;;4958422;28;20509;-71
2022/05/08 16:50:09;;;;;;;5.77;2.77;;;17.50;96.30;;;;;;4965318;28;20896;-71
2022/05/08 16:52:35;;;;;;;6.63;3.87;;;17.50;96.30;;;;;;4966107;28;20725;-71
2022/05/08 16:55:03;;;;;;;5.63;3.33;;;17.30;96.30;;;;;;4959810;28;20179;-71
2022/05/08 16:57:29;;;;;;;5.67;2.67;;;17.00;96.30;;;;;;4958768;28;20181;-71
2022/05/08 16:59:54;;;;;;;5.60;2.57;;;16.90;96.30;;;;;;4964529;28;20461;-71
2022/05/08 17:02:19;;;;;;;5.83;3.40;;;16.70;96.30;;;;;;4958658;28;20178;-71
2022/05/08 17:04:45;;;;;;;6.20;2.97;;;16.50;96.30;;;;;;4969992;28;20186;-71
2022/05/08 17:07:11;;;;;;;4.10;2.70;;;16.60;96.30;;;;;;4960260;28;20724;-71
2022/05/08 17:09:37;;;;;;;8.57;2.97;;;16.70;96.30;;;;;;4964676;28;20244;-71
2022/05/08 17:12:03;;;;;;;3.23;2.50;;;16.70;96.30;;;;;;4963023;28;20413;-71
2022/05/08 17:14:28;;;;;;;4.53;2.40;;;16.80;96.30;;;;;;4945910;29;20179;-72
2022/05/08 17:16:54;;;;;;;4.70;2.53;;;16.90;96.30;;;;;;4960320;28;20418;-71
2022/05/08 17:19:19;;;;;;;3.37;2.40;;;17.00;96.30;;;;;;4964975;28;20591;-71
2022/05/08 17:21:47;;;;;;;4.50;2.77;;;16.80;96.30;;;;;;4968154;28;20186;-71
2022/05/08 17:24:13;;;;;;;6.17;2.60;;;16.70;96.30;;;;;;4961259;28;20171;-72
2022/05/08 17:29:24;;;;;;;6.50;3.10;;;16.30;96.30;;;;;;4973077;28;20500;-71
2022/05/08 17:31:51;;;;;;;5.80;2.90;;;16.30;96.30;;;;;;4967419;28;20419;-71
2022/05/08 17:34:17;;;;;;;7.30;3.50;;;16.10;96.30;;;;;;4973298;28;20909;-71
2022/05/08 17:36:43;;;;;;;4.60;2.73;;;16.00;96.30;;;;;;4966199;28;20552;-73
2022/05/08 17:39:08;;;;;;;6.47;2.33;;;15.80;96.30;;;;;;4973188;28;20257;-72
2022/05/08 17:41:36;;;;;;;5.23;2.90;;;15.60;96.30;;;;;;4969132;28;20441;-71
2022/05/08 17:44:01;;;;;;;6.07;2.50;;;15.40;96.30;;;;;;4959983;28;20167;-71
2022/05/08 17:46:28;;;;;;;4.37;2.80;;;15.30;96.30;;;;;;4968337;28;20417;-71
2022/05/08 17:48:54;;;;;;;4.53;3.13;;;15.20;96.30;;;;;;4960757;28;20433;-72
2022/05/08 17:51:21;;;;;;;5.27;2.93;;;15.10;96.30;;;;;;4969786;28;20518;-73
2022/05/08 17:53:47;;;;;;;5.00;2.40;;;15.20;96.30;;;;;;4966106;28;20173;-71
2022/05/08 17:56:13;;;;;;;4.93;2.53;;;15.10;96.30;;;;;;4967240;28;20430;-71
2022/05/08 17:58:39;;;;;;;4.33;2.60;;;15.10;96.30;;;;;;4968271;28;20177;-73
2022/05/08 18:01:05;;;;;;;5.20;2.40;;;15.00;96.30;;;;;;4973054;28;20849;-72
2022/05/08 18:06:15;;;;;;;5.60;2.60;;;14.50;96.30;;;;;;4974788;28;20197;-71
2022/05/08 18:08:40;;;;;;;12.60;3.27;;;14.20;96.30;;;;;;4958196;28;20945;-71
2022/05/08 18:11:11;;;;;;;8.63;3.00;;;14.10;96.30;;;;;;4974915;28;20237;-72
2022/05/08 18:13:37;;;;;;;6.73;2.53;;;14.00;96.30;;;;;;4964740;28;20582;-71
2022/05/08 18:16:03;;;;;;;7.57;3.00;;;14.00;96.30;;;;;;4964795;28;20415;-71
2022/05/08 18:18:30;;;;;;;5.10;3.30;;;13.90;96.30;;;;;;4972823;28;20877;-73
2022/05/08 18:20:57;;;;;;;4.10;2.20;;;13.80;96.30;;;;;;4971126;28;20437;-72
2022/05/08 18:23:25;;;;;;;4.93;2.90;;;13.80;96.30;;;;;;4966026;28;20414;-72
2022/05/08 18:25:51;;;;;;;10.10;3.23;;;13.70;96.30;;;;;;4966738;28;20422;-74
2022/05/08 18:28:17;;;;;;;6.27;3.33;;;13.70;96.30;;;;;;4961039;28;20447;-74
2022/05/08 18:30:43;;;;;;;9.17;3.10;;;13.80;96.30;;;;;;4964000;28;20493;-72
2022/05/08 18:33:09;;;;;;;9.20;3.33;;;13.80;96.30;;;;;;4969897;28;20441;-72
2022/05/08 18:35:36;;;;;;;5.47;2.73;;;13.70;96.30;;;;;;4969938;28;20420;-72
2022/05/08 18:38:04;;;;;;;6.93;3.90;;;13.70;96.30;;;;;;4964970;28;20171;-72
2022/05/08 18:40:29;;;;;;;8.03;2.80;;;13.60;96.30;;;;;;4963492;28;20430;-72
2022/05/08 18:42:57;;;;;;;7.03;2.80;;;13.60;96.30;;;;;;4966583;28;20836;-75
2022/05/08 18:45:23;;;;;;;8.67;2.97;;;13.50;96.30;;;;;;4974845;28;20205;-72
2022/05/08 18:47:51;;;;;;;5.30;2.83;;;13.50;96.30;;;;;;4964031;28;20434;-75
2022/05/08 18:50:18;;;;;;;4.50;2.63;;;13.30;96.30;;;;;;4971200;28;21071;-76
2022/05/08 18:52:44;;;;;;;2.77;2.53;;;13.20;96.30;;;;;;4966474;28;20414;-72
2022/05/08 18:55:09;;;;;;;5.47;2.87;;;13.20;96.30;;;;;;4964393;28;20964;-72
2022/05/08 18:57:35;;;;;;;4.60;2.77;;;13.10;96.30;;;;;;4974488;28;20174;-72
2022/05/08 19:00:00;;;;;;;4.83;2.90;;;13.10;96.30;;;;;;4956154;28;20222;-72
2022/05/08 19:02:26;;;;;;;7.60;2.60;;;13.10;96.30;;;;;;4955581;29;20221;-72
2022/05/08 19:04:52;;;;;;;6.60;3.20;;;13.10;96.30;;;;;;4955527;29;20181;-73
2022/05/08 19:07:17;;;;;;;3.70;3.03;;;13.20;96.30;;;;;;4955193;29;20385;-72
2022/05/08 19:09:44;;;;;;;5.77;3.30;;;13.20;96.30;;;;;;4954702;29;20218;-71
2022/05/08 19:12:11;;;;;;;7.53;3.10;;;13.10;96.30;;;;;;4955467;29;20170;-72
2022/05/08 19:14:37;;;;;;;6.00;3.43;;;13.00;96.30;;;;;;4955402;29;20407;-72
2022/05/08 19:17:02;;;;;;;5.93;2.80;;;12.90;96.30;;;;;;4938042;29;20474;-72
2022/05/08 19:19:29;;;;;;;4.67;2.67;;;12.90;96.30;;;;;;4954728;29;20190;-74
2022/05/08 19:21:55;;;;;;;6.30;2.90;;;12.80;96.30;;;;;;4955039;29;20588;-72
2022/05/08 19:24:21;;;;;;;4.27;3.33;;;12.70;96.30;;;;;;4955196;29;20425;-72
2022/05/08 19:26:47;;;;;;;4.10;3.10;;;12.70;96.30;;;;;;4955071;29;20841;-72
2022/05/08 19:29:13;;;;;;;4.87;3.07;;;12.60;96.30;;;;;;4954488;29;20571;-72
2022/05/08 19:39:53;;;;;;;6.90;3.27;;;12.40;96.30;;;;;;4943654;28;20815;-72
2022/05/08 19:42:20;;;;;;;7.10;2.90;;;12.30;96.30;;;;;;4954809;29;20410;-73
2022/05/08 19:44:45;;;;;;;9.30;3.30;;;12.20;96.30;;;;;;4954582;29;20698;-73
2022/05/08 19:47:17;;;;;;;4.20;2.80;;;12.10;96.30;;;;;;4954626;29;20414;-73
2022/05/08 19:49:44;;;;;;;4.73;3.20;;;12.00;96.30;;;;;;4954023;29;20274;-72
2022/05/08 19:52:10;;;;;;;5.00;3.33;;;11.80;96.30;;;;;;4937506;29;20418;-73
2022/05/08 19:54:37;;;;;;;6.23;3.20;;;11.50;96.30;;;;;;4954705;29;20775;-71
2022/05/08 19:57:04;;;;;;;5.50;3.30;;;11.30;96.30;;;;;;4967915;28;20425;-72
2022/05/08 19:59:29;;;;;;;7.57;3.33;;;11.30;96.30;;;;;;4973147;28;20410;-72
2022/05/08 20:01:55;;;;;;;10.77;4.13;;;11.20;96.30;;;;;;4973894;28;20465;-72
2022/05/08 20:04:20;;;;;;;4.23;3.23;;;11.20;96.30;;;;;;4973626;28;20677;-72
2022/05/08 20:06:49;;;;;;;14.50;3.40;;;11.00;96.30;;;;;;4973678;28;20178;-73
2022/05/08 20:09:14;;;;;;;7.83;3.23;;;11.00;96.30;;;;;;4973043;28;20193;-71
2022/05/08 20:11:41;;;;;;;4.13;2.70;;;10.90;96.30;;;;;;4973622;28;20425;-71
2022/05/08 20:14:07;;;;;;;8.67;2.90;;;10.70;96.30;;;;;;4973349;28;20417;-72
2022/05/08 20:16:32;;;;;;;4.63;3.13;;;10.50;96.30;;;;;;4973421;28;20414;-72
2022/05/08 20:18:58;;;;;;;8.00;3.70;;;10.40;96.30;;;;;;4973024;28;20424;-73
2022/05/08 20:24:08;;;;;;;6.50;3.30;;;10.20;96.30;;;;;;4965016;28;20295;-71
2022/05/08 20:26:33;;;;;;;12.40;4.20;;;10.10;96.30;;;;;;4954226;28;20440;-71
2022/05/08 20:28:59;;;;;;;5.97;3.30;;;10.00;96.30;;;;;;4953725;29;20183;-71
2022/05/08 20:31:24;;;;;;;5.33;3.27;;;10.00;96.30;;;;;;4959155;28;20745;-72
2022/05/08 20:33:50;;;;;;;7.37;3.07;;;9.90;96.30;;;;;;4958378;28;20193;-71
2022/05/08 20:36:15;;;;;;;5.77;3.10;;;9.80;96.30;;;;;;4973371;28;20202;-72
2022/05/08 20:38:41;;;;;;;4.93;3.07;;;9.60;96.30;;;;;;4973255;28;20173;-72
2022/05/08 20:41:06;;;;;;;6.87;3.90;;;9.50;96.30;;;;;;4973305;28;20535;-71
2022/05/08 20:43:32;;;;;;;6.53;3.63;;;9.40;96.30;;;;;;4973437;28;20170;-72
2022/05/08 20:45:58;;;;;;;5.97;2.90;;;9.40;96.30;;;;;;4973282;28;20543;-73
2022/05/08 20:48:24;;;;;;;4.20;3.00;;;9.30;96.30;;;;;;4949666;28;20198;-75
2022/05/08 20:50:50;;;;;;;4.50;2.90;;;9.20;96.30;;;;;;4954548;28;20929;-75
2022/05/08 20:53:15;;;;;;;6.23;3.13;;;9.10;96.30;;;;;;4975399;28;20414;-74
2022/05/08 20:55:41;;;;;;;3.60;3.30;;;9.10;96.30;;;;;;4977358;28;20170;-73
2022/05/08 20:58:06;;;;;;;6.80;2.97;;;9.10;96.30;;;;;;4977120;28;20206;-73
2022/05/08 21:00:32;;;;;;;13.13;3.80;;;9.10;96.30;;;;;;4977925;28;20236;-74
2022/05/08 21:02:57;;;;;;;7.10;3.50;;;9.10;96.30;;;;;;4983343;28;20185;-74
2022/05/08 21:08:07;;;;;;;11.70;4.40;;;9.10;96.30;;;;;;4976993;28;20193;-73
2022/05/08 21:10:36;;;;;;;8.50;3.77;;;9.10;96.30;;;;;;4976876;28;20469;-73
2022/05/08 21:13:02;;;;;;;7.37;3.80;;;9.10;96.30;;;;;;4977182;28;20174;-72
2022/05/08 21:15:27;;;;;;;13.60;3.53;;;9.10;96.30;;;;;;4977154;28;20409;-72
2022/05/08 21:17:53;;;;;;;10.13;3.27;;;9.20;96.30;;;;;;4977534;28;20421;-73
2022/05/08 21:20:18;;;;;;;7.13;3.53;;;9.20;96.30;;;;;;4960070;28;20212;-73
2022/05/08 21:22:44;;;;;;;7.23;3.20;;;9.20;96.30;;;;;;4977313;28;20210;-72
2022/05/08 21:25:10;;;;;;;6.80;3.50;;;9.30;96.30;;;;;;4977311;28;20253;-73
2022/05/08 21:27:35;;;;;;;7.17;3.00;;;9.30;96.30;;;;;;4976849;28;20174;-73
2022/05/08 21:30:02;;;;;;;6.50;3.07;;;9.30;96.30;;;;;;4976906;28;20217;-74
2022/05/08 21:32:28;;;;;;;9.43;3.30;;;9.40;96.30;;;;;;4977516;28;20655;-75
2022/05/08 21:34:55;;;;;;;6.10;2.80;;;9.40;96.30;;;;;;4981437;28;20413;-78
2022/05/08 21:37:22;;;;;;;5.80;2.30;;;9.30;96.30;;;;;;4981277;28;20430;-79
2022/05/08 21:39:47;;;;;;;10.03;3.40;;;9.30;96.30;;;;;;4972425;29;20461;-73
2022/05/08 21:42:13;;;;;;;7.93;2.87;;;9.40;96.30;;;;;;4964974;28;20449;-74
2022/05/08 21:44:38;;;;;;;6.07;2.73;;;9.40;96.30;;;;;;4957464;29;20252;-72
2022/05/08 21:47:04;;;;;;;5.57;2.50;;;9.30;96.30;;;;;;4957496;29;20669;-73
2022/05/08 21:49:29;;;;;;;6.10;3.17;;;9.10;96.30;;;;;;4956685;29;20179;-74
2022/05/08 21:51:54;;;;;;;4.50;2.43;;;8.90;96.30;;;;;;4956895;29;20947;-72
2022/05/08 21:54:20;;;;;;;3.93;2.60;;;8.80;96.30;;;;;;4956955;29;20171;-73
2022/05/08 21:56:45;;;;;;;7.13;2.87;;;8.80;96.30;;;;;;4956863;29;20628;-73
2022/05/08 21:59:11;;;;;;;5.07;2.30;;;8.70;96.30;;;;;;4956715;29;20171;-72
2022/05/08 22:01:37;;;;;;;7.33;3.20;;;8.60;96.30;;;;;;4956690;28;20210;-73
2022/05/08 22:04:04;;;;;;;6.77;2.80;;;8.70;96.30;;;;;;4955440;28;20230;-73
2022/05/08 22:06:29;;;;;;;4.17;2.60;;;8.70;96.30;;;;;;4956617;29;20222;-73
2022/05/08 22:08:55;;;;;;;4.03;2.37;;;8.70;96.30;;;;;;4956465;29;20410;-73
2022/05/08 22:11:20;;;;;;;7.80;2.63;;;8.70;96.30;;;;;;4956478;29;20215;-73
2022/05/08 22:13:46;;;;;;;9.13;2.70;;;8.70;96.30;;;;;;4939958;29;20194;-73
2022/05/08 22:16:11;;;;;;;5.67;2.40;;;8.70;96.30;;;;;;4956482;29;20171;-73
2022/05/08 22:21:21;;;;;;;11.93;3.33;;;8.70;96.30;;;;;;4956463;29;20218;-74
2022/05/08 22:23:46;;;;;;;8.10;2.90;;;8.70;96.30;;;;;;4939336;29;20927;-75
2022/05/08 22:26:12;;;;;;;4.27;1.90;;;8.50;96.30;;;;;;4956273;29;20179;-73
2022/05/08 22:28:38;;;;;;;5.63;2.30;;;8.30;96.30;;;;;;4956303;28;20171;-73
2022/05/08 22:31:05;;;;;;;7.07;2.77;;;8.20;96.30;;;;;;4956133;29;20206;-73
2022/05/08 22:33:30;;;;;;;7.43;2.23;;;8.20;96.30;;;;;;4956225;29;20406;-73
2022/05/08 22:35:56;;;;;;;6.13;2.30;;;8.10;96.30;;;;;;4938978;29;20498;-73
2022/05/08 22:38:21;;;;;;;6.30;2.13;;;8.20;96.30;;;;;;4955884;29;20547;-74
2022/05/08 22:40:46;;;;;;;3.73;2.20;;;8.20;96.30;;;;;;4956001;29;20254;-73
2022/05/08 22:43:12;;;;;;;5.43;2.50;;;8.20;96.30;;;;;;4956073;28;20182;-73
2022/05/08 22:45:38;;;;;;;6.47;2.37;;;8.10;96.30;;;;;;4938746;29;20658;-74
2022/05/08 22:48:05;;;;;;;3.73;1.70;;;7.90;96.30;;;;;;4938548;29;20733;-73
2022/05/08 22:50:31;;;;;;;5.33;2.23;;;7.80;96.30;;;;;;4955811;29;20545;-73
2022/05/08 22:52:57;;;;;;;6.37;3.00;;;7.70;96.30;;;;;;4955841;29;20926;-73
2022/05/08 22:55:22;;;;;;;5.00;2.50;;;7.60;96.30;;;;;;4955798;29;20534;-73
2022/05/08 22:57:48;;;;;;;2.20;1.80;;;7.80;96.30;;;;;;4955534;29;20182;-74
2022/05/08 23:00:14;;;;;;;5.80;2.03;;;7.70;96.30;;;;;;4955514;28;20214;-73
2022/05/08 23:02:39;;;;;;;3.10;2.10;;;7.60;96.30;;;;;;4955611;29;20213;-73
2022/05/08 23:05:05;;;;;;;6.83;2.90;;;7.40;96.30;;;;;;4955620;29;20203;-73
2022/05/08 23:07:31;;;;;;;4.17;2.53;;;7.30;96.30;;;;;;4938123;29;20183;-73
2022/05/08 23:09:57;;;;;;;3.47;2.07;;;7.20;96.30;;;;;;4955393;29;20556;-73
2022/05/08 23:12:23;;;;;;;3.93;2.53;;;7.30;96.30;;;;;;4955486;29;20502;-73
2022/05/08 23:17:36;;;;;;;5.70;2.80;;;7.10;96.30;;;;;;4955525;29;20442;-74
2022/05/08 23:20:06;;;;;;;8.47;2.17;;;7.20;96.30;;;;;;4955289;29;20434;-73
2022/05/08 23:22:39;;;;;;;3.70;2.27;;;7.20;96.30;;;;;;4955285;28;20257;-73
2022/05/08 23:25:06;;;;;;;6.37;2.47;;;7.10;96.30;;;;;;4955286;29;20414;-74
2022/05/08 23:27:31;;;;;;;5.07;2.43;;;7.00;96.30;;;;;;4954706;29;20450;-76
2022/05/08 23:29:57;;;;;;;8.10;2.80;;;7.00;96.30;;;;;;4954901;29;20501;-76
2022/05/08 23:32:22;;;;;;;4.50;2.87;;;6.90;96.30;;;;;;4955027;29;20179;-76
2022/05/08 23:34:48;;;;;;;8.63;2.83;;;7.10;96.30;;;;;;4955034;29;20171;-76
2022/05/08 23:37:14;;;;;;;6.20;2.53;;;7.10;96.30;;;;;;4937687;29;20391;-76
2022/05/08 23:39:39;;;;;;;5.20;2.90;;;7.00;96.30;;;;;;4954573;29;20261;-75
2022/05/08 23:42:06;;;;;;;5.23;2.30;;;6.90;96.30;;;;;;4954611;29;20226;-75
2022/05/08 23:44:31;;;;;;;5.10;2.60;;;6.80;96.30;;;;;;4954789;28;20210;-74
2022/05/08 23:46:58;;;;;;;9.57;2.60;;;6.70;96.30;;;;;;4937488;29;20462;-74
2022/05/08 23:49:24;;;;;;;2.87;2.13;;;6.70;96.30;;;;;;4954424;28;20175;-75
2022/05/08 23:51:49;;;;;;;5.67;2.27;;;6.60;96.30;;;;;;4937531;29;20425;-75
2022/05/08 23:54:15;;;;;;;4.60;2.73;;;6.50;96.30;;;;;;4954638;29;20755;-76
2022/05/08 23:56:41;;;;;;;3.73;2.40;;;6.50;96.30;;;;;;4954618;28;20245;-76
2022/05/08 23:59:07;;;;;;;8.00;2.57;;;6.50;96.30;;;;;;4954309;28;20214;-76
